createdAt,value
2024-02-02T00:02:07.487Z,100644.84
2024-02-02T00:04:34.254Z,100644.84
2024-02-02T00:07:00.895Z,100636.47
2024-02-02T00:09:27.522Z,100632.38
2024-02-02T00:11:54.256Z,100617.84
2024-02-02T00:14:20.963Z,100644.75
2024-02-02T00:16:47.597Z,100640.13
2024-02-02T00:19:14.523Z,100642.38
2024-02-02T00:21:41.148Z,100635.59
2024-02-02T00:24:07.949Z,100648.34
2024-02-02T00:26:35.344Z,100633.03
2024-02-02T00:29:01.951Z,100645.16
2024-02-02T00:31:28.477Z,100652.84
2024-02-02T00:33:55.171Z,100658.78
2024-02-02T00:36:21.912Z,100649.44
2024-02-02T00:38:48.529Z,100657.19
2024-02-02T00:41:15.068Z,100644.41
2024-02-02T00:43:42.161Z,100639.56
2024-02-02T00:46:08.756Z,100643.78
2024-02-02T00:48:35.647Z,100654.91
2024-02-02T00:51:02.687Z,100649.94
2024-02-02T00:53:29.448Z,100656.00
2024-02-02T00:55:56.308Z,100660.09
2024-02-02T00:58:22.926Z,100648.31
2024-02-02T01:00:49.609Z,100650.22
2024-02-02T01:03:16.249Z,100660.50
2024-02-02T01:05:43.164Z,100657.22
2024-02-02T01:08:09.917Z,100650.94
2024-02-02T01:10:36.913Z,100643.09
2024-02-02T01:13:03.948Z,100644.72
2024-02-02T01:15:30.519Z,100656.59
2024-02-02T01:17:57.171Z,100653.03
2024-02-02T01:20:23.930Z,100648.59
2024-02-02T01:22:50.677Z,100645.97
2024-02-02T01:25:17.315Z,100639.16
2024-02-02T01:27:44.282Z,100656.13
2024-02-02T01:30:14.093Z,100660.03
2024-02-02T01:32:40.959Z,100643.97
2024-02-02T01:35:08.472Z,100649.84
2024-02-02T01:37:35.057Z,100658.41
2024-02-02T01:40:01.725Z,100653.44
2024-02-02T01:42:28.399Z,100651.09
2024-02-02T01:44:55.078Z,100641.63
2024-02-02T01:47:22.086Z,100655.22
2024-02-02T01:49:49.647Z,100649.38
2024-02-02T01:52:16.481Z,100655.13
2024-02-02T01:54:43.263Z,100661.03
2024-02-02T01:57:10.133Z,100650.88
2024-02-02T01:59:37.189Z,100661.91
2024-02-02T02:02:03.941Z,100649.25
2024-02-02T02:04:30.509Z,100651.00
2024-02-02T02:06:57.420Z,100660.50
2024-02-02T02:09:24.129Z,100658.06
2024-02-02T02:11:52.721Z,100652.25
2024-02-02T02:14:19.642Z,100637.91
2024-02-02T02:16:46.219Z,100644.69
2024-02-02T02:19:15.757Z,100647.19
2024-02-02T02:21:42.939Z,100654.97
2024-02-02T02:24:10.397Z,100658.34
2024-02-02T02:26:37.391Z,100659.19
2024-02-02T02:29:04.721Z,100644.63
2024-02-02T02:31:31.380Z,100650.78
2024-02-02T02:33:58.527Z,100654.03
2024-02-02T02:36:25.654Z,100653.25
2024-02-02T02:38:52.485Z,100647.47
2024-02-02T02:41:19.134Z,100632.97
2024-02-02T02:43:45.658Z,100656.59
2024-02-02T02:46:12.734Z,100641.44
2024-02-02T02:48:39.606Z,100648.19
2024-02-02T02:51:06.453Z,100654.94
2024-02-02T02:53:33.055Z,100655.56
2024-02-02T02:55:59.660Z,100657.16
2024-02-02T02:58:26.264Z,100646.09
2024-02-02T03:00:54.029Z,100649.47
2024-02-02T03:03:20.801Z,100646.03
2024-02-02T03:05:48.242Z,100647.00
2024-02-02T03:08:15.141Z,100659.69
2024-02-02T03:10:43.232Z,100657.38
2024-02-02T03:13:10.348Z,100658.22
2024-02-02T03:15:37.331Z,100647.34
2024-02-02T03:18:04.840Z,100659.94
2024-02-02T03:20:31.429Z,100657.44
2024-02-02T03:22:58.027Z,100659.13
2024-02-02T03:25:24.688Z,100673.50
2024-02-02T03:27:51.356Z,100664.16
2024-02-02T03:30:18.070Z,100662.56
2024-02-02T03:32:46.066Z,100672.22
2024-02-02T03:35:13.749Z,100660.34
2024-02-02T03:37:40.359Z,100675.56
2024-02-02T03:40:07.431Z,100674.00
2024-02-02T03:42:34.047Z,100658.97
2024-02-02T03:45:00.745Z,100681.94
2024-02-02T03:47:27.405Z,100683.66
2024-02-02T03:49:54.164Z,100675.19
2024-02-02T03:52:24.569Z,100678.72
2024-02-02T03:54:52.109Z,100687.19
2024-02-02T03:57:19.832Z,100678.66
2024-02-02T03:59:46.588Z,100683.03
2024-02-02T04:02:13.781Z,100689.75
2024-02-02T04:04:40.654Z,100690.53
2024-02-02T04:07:07.357Z,100687.97
2024-02-02T04:09:34.147Z,100694.81
2024-02-02T04:12:00.909Z,100694.78
2024-02-02T04:14:27.688Z,100690.53
2024-02-02T04:16:54.241Z,100687.13
2024-02-02T04:19:22.273Z,100688.03
2024-02-02T04:21:49.299Z,100687.06
2024-02-02T04:24:15.902Z,100680.38
2024-02-02T04:26:42.661Z,100702.53
2024-02-02T04:29:09.546Z,100702.66
2024-02-02T04:31:36.114Z,100707.88
2024-02-02T04:34:02.810Z,100701.06
2024-02-02T04:36:30.924Z,100696.81
2024-02-02T04:38:57.748Z,100700.22
2024-02-02T04:41:24.413Z,100694.97
2024-02-02T04:43:51.190Z,100687.28
2024-02-02T04:46:18.522Z,100697.47
2024-02-02T04:48:45.153Z,100694.06
2024-02-02T04:51:12.067Z,100702.75
2024-02-02T04:53:38.757Z,100715.44
2024-02-02T04:56:05.583Z,100694.13
2024-02-02T04:58:32.151Z,100710.31
2024-02-02T05:00:58.722Z,100709.41
2024-02-02T05:03:25.342Z,100710.28
2024-02-02T05:05:51.978Z,100706.97
2024-02-02T05:08:18.616Z,100700.94
2024-02-02T05:10:45.288Z,100697.53
2024-02-02T05:13:11.841Z,100704.22
2024-02-02T05:15:38.537Z,100726.56
2024-02-02T05:18:05.679Z,100720.53
2024-02-02T05:20:32.739Z,100710.16
2024-02-02T05:22:59.732Z,100709.38
2024-02-02T05:25:26.773Z,100717.88
2024-02-02T05:27:53.529Z,100712.84
2024-02-02T05:30:21.729Z,100721.34
2024-02-02T05:32:48.487Z,100733.34
2024-02-02T05:35:15.021Z,100741.88
2024-02-02T05:37:41.618Z,100745.41
2024-02-02T05:40:08.978Z,100730.09
2024-02-02T05:42:35.604Z,100748.75
2024-02-02T05:45:02.649Z,100744.44
2024-02-02T05:47:29.304Z,100750.47
2024-02-02T05:49:55.947Z,100745.50
2024-02-02T05:52:22.667Z,100733.63
2024-02-02T05:54:49.256Z,100753.94
2024-02-02T05:57:15.949Z,100759.88
2024-02-02T05:59:42.537Z,100759.06
2024-02-02T06:02:09.165Z,100762.47
2024-02-02T06:04:35.895Z,100764.13
2024-02-02T06:07:02.521Z,100770.03
2024-02-02T06:09:30.211Z,100774.25
2024-02-02T06:11:56.910Z,100775.94
2024-02-02T06:14:26.557Z,100770.88
2024-02-02T06:16:53.260Z,100775.13
2024-02-02T06:19:20.147Z,100775.09
2024-02-02T06:21:46.744Z,100786.94
2024-02-02T06:24:13.338Z,100778.50
2024-02-02T06:26:39.960Z,100795.44
2024-02-02T06:29:06.544Z,100794.41
2024-02-02T06:31:33.102Z,100787.59
2024-02-02T06:33:59.714Z,100810.41
2024-02-02T06:36:28.348Z,100798.47
2024-02-02T06:38:57.091Z,100814.50
2024-02-02T06:41:24.030Z,100807.78
2024-02-02T06:43:51.344Z,100815.28
2024-02-02T06:46:17.980Z,100814.63
2024-02-02T06:48:48.107Z,100814.63
2024-02-02T06:51:15.022Z,100817.13
2024-02-02T06:53:41.619Z,100825.84
2024-02-02T06:56:26.676Z,100824.41
2024-02-02T06:58:53.258Z,100825.38
2024-02-02T07:01:19.864Z,100819.50
2024-02-02T07:03:46.686Z,100834.78
2024-02-02T07:06:13.641Z,100839.09
2024-02-02T07:08:40.472Z,100826.50
2024-02-02T07:11:36.130Z,100838.31
2024-02-02T07:14:10.422Z,100841.63
2024-02-02T07:16:37.978Z,100847.53
2024-02-02T07:19:05.216Z,100841.69
2024-02-02T07:21:32.892Z,100849.28
2024-02-02T07:24:00.260Z,100853.41
2024-02-02T07:26:29.524Z,100853.44
2024-02-02T07:28:57.257Z,100859.47
2024-02-02T07:31:39.176Z,100847.56
2024-02-02T07:34:18.017Z,100851.03
2024-02-02T07:36:45.498Z,100850.94
2024-02-02T07:39:27.093Z,100847.53
2024-02-02T07:41:53.708Z,100856.06
2024-02-02T07:44:20.285Z,100867.91
2024-02-02T07:46:46.864Z,100875.50
2024-02-02T07:49:13.538Z,100876.31
2024-02-02T07:51:44.298Z,100871.16
2024-02-02T07:54:11.351Z,100878.84
2024-02-02T07:56:37.919Z,100854.16
2024-02-02T07:59:05.033Z,100875.25
2024-02-02T08:01:34.545Z,100875.38
2024-02-02T08:04:02.511Z,100872.13
2024-02-02T08:06:29.995Z,100876.28
2024-02-02T08:08:58.456Z,100852.28
2024-02-02T08:11:26.913Z,100859.81
2024-02-02T08:13:53.623Z,100855.59
2024-02-02T08:16:20.261Z,100848.75
2024-02-02T08:18:47.205Z,100839.25
2024-02-02T08:21:13.983Z,100838.22
2024-02-02T08:23:41.818Z,100834.81
2024-02-02T08:26:08.666Z,100838.97
2024-02-02T08:28:42.260Z,100825.44
2024-02-02T08:31:15.582Z,100830.72
2024-02-02T08:33:43.885Z,100832.44
2024-02-02T08:36:11.554Z,100834.97
2024-02-02T08:38:38.411Z,100835.91
2024-02-02T08:41:05.665Z,100826.50
2024-02-02T08:43:32.188Z,100827.41
2024-02-02T08:46:13.653Z,100838.56
2024-02-02T08:48:46.598Z,100835.81
2024-02-02T08:51:34.602Z,100846.03
2024-02-02T08:54:16.661Z,100845.13
2024-02-02T08:56:47.780Z,100844.28
2024-02-02T08:59:34.131Z,100838.16
2024-02-02T09:02:00.891Z,100837.91
2024-02-02T09:05:00.970Z,100844.66
2024-02-02T09:07:27.691Z,100844.78
2024-02-02T09:09:54.293Z,100846.31
2024-02-02T09:12:22.792Z,100841.19
2024-02-02T09:14:49.300Z,100848.88
2024-02-02T09:17:15.800Z,100859.88
2024-02-02T09:19:44.456Z,100867.34
2024-02-02T09:22:15.320Z,100875.94
2024-02-02T09:24:47.674Z,100858.00
2024-02-02T09:27:33.767Z,100875.88
2024-02-02T09:30:00.778Z,100886.13
2024-02-02T09:32:28.645Z,100874.97
2024-02-02T09:35:02.080Z,100877.47
2024-02-02T09:37:50.647Z,100875.81
2024-02-02T09:40:35.613Z,100879.03
2024-02-02T09:43:18.108Z,100867.97
2024-02-02T09:46:03.305Z,100872.19
2024-02-02T09:48:46.206Z,100866.97
2024-02-02T09:51:35.011Z,100877.00
2024-02-02T09:54:17.446Z,100882.06
2024-02-02T09:57:13.842Z,100871.63
2024-02-02T09:59:50.943Z,100876.53
2024-02-02T10:02:33.407Z,100869.06
2024-02-02T10:05:06.131Z,100881.66
2024-02-02T10:08:21.243Z,100877.97
2024-02-02T10:11:32.506Z,100888.88
2024-02-02T10:14:29.595Z,100880.97
2024-02-02T10:17:19.297Z,100878.59
2024-02-02T10:19:51.779Z,100874.84
2024-02-02T10:22:21.143Z,100862.06
2024-02-02T10:24:59.042Z,100866.28
2024-02-02T10:27:28.819Z,100869.13
2024-02-02T10:30:19.798Z,100859.59
2024-02-02T10:32:55.223Z,100856.59
2024-02-02T10:35:57.397Z,100836.13
2024-02-02T10:38:40.755Z,100839.56
2024-02-02T10:41:29.828Z,100837.44
2024-02-02T10:44:18.503Z,100850.56
2024-02-02T10:46:54.204Z,100837.25
2024-02-02T10:49:39.250Z,100836.69
2024-02-02T10:52:22.526Z,100826.91
2024-02-02T10:55:07.836Z,100837.25
2024-02-02T10:57:55.274Z,100820.34
2024-02-02T11:00:25.274Z,100813.88
2024-02-02T11:03:23.482Z,100820.59
2024-02-02T11:05:56.167Z,100824.13
2024-02-02T11:08:25.661Z,100826.53
2024-02-02T11:11:05.005Z,100823.03
2024-02-02T11:14:22.528Z,100820.38
2024-02-02T11:17:01.871Z,100813.41
2024-02-02T11:20:00.549Z,100823.78
2024-02-02T11:22:38.951Z,100821.19
2024-02-02T11:25:15.318Z,100823.03
2024-02-02T11:28:02.836Z,100805.88
2024-02-02T11:30:48.320Z,100815.13
2024-02-02T11:33:21.846Z,100804.72
2024-02-02T11:35:57.238Z,100824.44
2024-02-02T11:38:42.692Z,100809.13
2024-02-02T11:41:17.353Z,100809.06
2024-02-02T11:43:45.652Z,100814.00
2024-02-02T11:46:14.401Z,100803.59
2024-02-02T11:48:42.830Z,100790.06
2024-02-02T11:51:10.990Z,100791.66
2024-02-02T11:53:37.441Z,100802.66
2024-02-02T11:56:29.248Z,100799.97
2024-02-02T11:59:18.793Z,100783.72
2024-02-02T12:02:19.580Z,100790.16
2024-02-02T12:04:49.615Z,100783.00
2024-02-02T12:07:44.362Z,100794.88
2024-02-02T12:10:16.428Z,100799.56
2024-02-02T12:12:47.014Z,100784.31
2024-02-02T12:15:15.710Z,100786.22
2024-02-02T12:17:42.823Z,100793.38
2024-02-02T12:20:12.056Z,100790.44
2024-02-02T12:22:38.981Z,100764.72
2024-02-02T12:25:10.742Z,100778.13
2024-02-02T12:27:38.370Z,100756.03
2024-02-02T12:30:10.031Z,100749.56
2024-02-02T12:32:37.650Z,100754.94
2024-02-02T12:35:07.710Z,100760.88
2024-02-02T12:37:51.915Z,100755.44
2024-02-02T12:40:23.290Z,100745.13
2024-02-02T12:42:50.115Z,100745.41
2024-02-02T12:45:17.179Z,100742.97
2024-02-02T12:47:45.202Z,100745.00
2024-02-02T12:50:16.944Z,100751.19
2024-02-02T12:52:44.516Z,100742.09
2024-02-02T12:55:11.749Z,100737.69
2024-02-02T12:57:38.485Z,100742.00
2024-02-02T13:00:06.614Z,100749.81
2024-02-02T13:02:33.685Z,100737.63
2024-02-02T13:05:01.839Z,100738.38
2024-02-02T13:07:29.377Z,100742.66
2024-02-02T13:09:59.525Z,100737.28
2024-02-02T13:12:29.078Z,100738.13
2024-02-02T13:15:13.525Z,100745.13
2024-02-02T13:17:41.511Z,100746.22
2024-02-02T13:20:15.559Z,100737.06
2024-02-02T13:22:51.521Z,100731.81
2024-02-02T13:25:25.769Z,100744.69
2024-02-02T13:27:56.014Z,100736.97
2024-02-02T13:30:29.226Z,100729.16
2024-02-02T13:32:55.749Z,100722.09
2024-02-02T13:35:30.895Z,100722.59
2024-02-02T13:37:57.813Z,100708.81
2024-02-02T13:40:28.838Z,100723.16
2024-02-02T13:42:57.334Z,100706.06
2024-02-02T13:45:26.486Z,100721.94
2024-02-02T13:47:57.507Z,100703.03
2024-02-02T13:50:41.706Z,100707.13
2024-02-02T13:53:10.165Z,100717.25
2024-02-02T13:55:36.755Z,100708.03
2024-02-02T13:58:03.469Z,100724.09
2024-02-02T14:00:32.500Z,100711.38
2024-02-02T14:03:12.998Z,100719.53
2024-02-02T14:05:43.224Z,100725.56
2024-02-02T14:08:10.356Z,100711.66
2024-02-02T14:10:47.150Z,100722.66
2024-02-02T14:13:18.458Z,100720.72
2024-02-02T14:15:45.973Z,100723.38
2024-02-02T14:18:16.172Z,100716.53
2024-02-02T14:20:42.950Z,100726.91
2024-02-02T14:23:13.930Z,100728.00
2024-02-02T14:25:41.066Z,100728.72
2024-02-02T14:28:33.758Z,100731.81
2024-02-02T14:31:01.787Z,100739.19
2024-02-02T14:33:28.532Z,100736.78
2024-02-02T14:35:55.415Z,100738.75
2024-02-02T14:38:21.990Z,100731.22
2024-02-02T14:40:49.956Z,100742.34
2024-02-02T14:43:16.768Z,100737.69
2024-02-02T14:45:43.384Z,100724.69
2024-02-02T14:48:10.071Z,100722.88
2024-02-02T14:50:36.755Z,100721.66
2024-02-02T14:53:03.662Z,100717.34
2024-02-02T14:55:32.958Z,100708.38
2024-02-02T14:58:01.506Z,100727.03
2024-02-02T15:00:34.657Z,100728.97
2024-02-02T15:03:01.849Z,100702.25
2024-02-02T15:05:28.648Z,100715.75
2024-02-02T15:07:55.453Z,100708.06
2024-02-02T15:10:22.552Z,100702.13
2024-02-02T15:12:49.575Z,100713.94
2024-02-02T15:15:16.443Z,100713.22
2024-02-02T15:17:43.202Z,100713.81
2024-02-02T15:20:11.541Z,100703.38
2024-02-02T15:22:38.454Z,100718.09
2024-02-02T15:25:06.042Z,100715.69
2024-02-02T15:27:35.510Z,100726.66
2024-02-02T15:30:04.668Z,100707.78
2024-02-02T15:32:31.296Z,100721.53
2024-02-02T15:34:58.172Z,100724.75
2024-02-02T15:37:27.254Z,100694.91
2024-02-02T15:40:01.764Z,100714.16
2024-02-02T15:42:30.496Z,100720.75
2024-02-02T15:44:59.442Z,100722.34
2024-02-02T15:47:26.566Z,100713.03
2024-02-02T15:49:53.367Z,100725.66
2024-02-02T15:52:20.005Z,100720.44
2024-02-02T15:54:46.653Z,100703.31
2024-02-02T15:57:13.335Z,100700.72
2024-02-02T15:59:40.255Z,100702.28
2024-02-02T16:02:09.544Z,100707.44
2024-02-02T16:04:36.457Z,100701.53
2024-02-02T16:07:06.441Z,100703.13
2024-02-02T16:09:38.251Z,100683.50
2024-02-02T16:12:09.602Z,100684.22
2024-02-02T16:14:36.680Z,100674.78
2024-02-02T16:17:03.803Z,100672.25
2024-02-02T16:19:30.597Z,100673.13
2024-02-02T16:21:57.216Z,100678.13
2024-02-02T16:24:23.863Z,100684.09
2024-02-02T16:26:50.411Z,100676.53
2024-02-02T16:29:17.304Z,100686.72
2024-02-02T16:31:45.147Z,100689.44
2024-02-02T16:34:12.140Z,100670.91
2024-02-02T16:36:46.462Z,100689.78
2024-02-02T16:39:15.025Z,100677.13
2024-02-02T16:41:43.113Z,100680.75
2024-02-02T16:44:09.957Z,100690.22
2024-02-02T16:46:41.508Z,100691.06
2024-02-02T16:49:09.008Z,100691.19
2024-02-02T16:51:39.447Z,100690.22
2024-02-02T16:54:10.125Z,100679.91
2024-02-02T16:56:37.108Z,100690.09
2024-02-02T16:59:04.311Z,100682.50
2024-02-02T17:01:31.516Z,100680.66
2024-02-02T17:03:59.133Z,100673.81
2024-02-02T17:06:26.018Z,100671.97
2024-02-02T17:08:54.166Z,100674.66
2024-02-02T17:11:21.593Z,100660.19
2024-02-02T17:13:48.585Z,100662.78
2024-02-02T17:16:15.844Z,100670.59
2024-02-02T17:18:42.553Z,100653.75
2024-02-02T17:21:09.800Z,100663.06
2024-02-02T17:23:36.566Z,100658.72
2024-02-02T17:26:03.594Z,100674.19
2024-02-02T17:28:30.367Z,100673.44
2024-02-02T17:30:57.609Z,100675.19
2024-02-02T17:33:24.669Z,100672.69
2024-02-02T17:35:51.570Z,100667.69
2024-02-02T17:38:18.209Z,100677.88
2024-02-02T17:40:47.465Z,100676.25
2024-02-02T17:43:14.413Z,100673.81
2024-02-02T17:45:42.233Z,100674.56
2024-02-02T17:48:09.570Z,100666.97
2024-02-02T17:50:36.615Z,100670.16
2024-02-02T17:53:03.456Z,100666.69
2024-02-02T17:55:30.625Z,100665.09
2024-02-02T17:57:57.448Z,100671.84
2024-02-02T18:00:24.266Z,100668.47
2024-02-02T18:02:51.044Z,100674.41
2024-02-02T18:05:18.446Z,100666.88
2024-02-02T18:07:48.119Z,100663.50
2024-02-02T18:10:16.157Z,100666.25
2024-02-02T18:12:43.048Z,100669.88
2024-02-02T18:15:10.043Z,100670.13
2024-02-02T18:17:36.750Z,100654.75
2024-02-02T18:20:04.930Z,100662.22
2024-02-02T18:22:31.829Z,100655.47
2024-02-02T18:24:58.556Z,100661.34
2024-02-02T18:27:25.309Z,100647.38
2024-02-02T18:29:53.431Z,100650.91
2024-02-02T18:32:21.001Z,100649.72
2024-02-02T18:34:50.731Z,100650.50
2024-02-02T18:37:17.380Z,100631.66
2024-02-02T18:39:44.082Z,100625.56
2024-02-02T18:42:10.819Z,100629.59
2024-02-02T18:44:37.614Z,100629.53
2024-02-02T18:47:04.570Z,100620.06
2024-02-02T18:49:31.320Z,100614.06
2024-02-02T18:51:57.950Z,100623.16
2024-02-02T18:54:24.737Z,100623.97
2024-02-02T18:56:51.381Z,100608.63
2024-02-02T18:59:17.895Z,100606.19
2024-02-02T19:01:44.541Z,100591.59
2024-02-02T19:04:12.468Z,100595.06
2024-02-02T19:06:39.805Z,100592.47
2024-02-02T19:09:10.523Z,100594.84
2024-02-02T19:11:37.372Z,100592.34
2024-02-02T19:14:05.611Z,100590.53
2024-02-02T19:16:32.281Z,100590.63
2024-02-02T19:18:58.902Z,100586.34
2024-02-02T19:21:27.455Z,100584.59
2024-02-02T19:23:55.571Z,100578.59
2024-02-02T19:26:25.734Z,100569.28
2024-02-02T19:28:53.203Z,100556.47
2024-02-02T19:31:24.156Z,100558.03
2024-02-02T19:33:51.750Z,100547.03
2024-02-02T19:36:22.637Z,100540.22
2024-02-02T19:38:50.704Z,100534.16
2024-02-02T19:41:21.860Z,100536.81
2024-02-02T19:43:49.326Z,100528.19
2024-02-02T19:46:26.420Z,100524.78
2024-02-02T19:48:54.695Z,100520.41
2024-02-02T19:51:22.662Z,100507.69
2024-02-02T19:53:52.557Z,100513.56
2024-02-02T19:56:19.440Z,100519.47
2024-02-02T19:58:46.125Z,100504.94
2024-02-02T20:01:14.694Z,100511.75
2024-02-02T20:03:42.500Z,100513.47
2024-02-02T20:06:14.731Z,100512.69
2024-02-02T20:08:42.979Z,100512.59
2024-02-02T20:11:20.396Z,100513.47
2024-02-02T20:13:47.911Z,100502.50
2024-02-02T20:16:16.359Z,100514.25
2024-02-02T20:18:43.068Z,100509.25
2024-02-02T20:21:12.951Z,100507.53
2024-02-02T20:23:41.144Z,100507.44
2024-02-02T20:26:07.932Z,100492.19
2024-02-02T20:28:34.579Z,100492.31
2024-02-02T20:31:02.294Z,100498.34
2024-02-02T20:33:28.835Z,100496.59
2024-02-02T20:35:55.376Z,100495.22
2024-02-02T20:38:21.878Z,100499.72
2024-02-02T20:40:48.369Z,100488.69
2024-02-02T20:43:15.021Z,100497.63
2024-02-02T20:45:41.691Z,100478.25
2024-02-02T20:48:08.340Z,100483.25
2024-02-02T20:50:34.977Z,100477.28
2024-02-02T20:53:01.508Z,100480.22
2024-02-02T20:55:28.184Z,100472.53
2024-02-02T20:57:55.182Z,100467.34
2024-02-02T21:00:22.018Z,100477.59
2024-02-02T21:02:48.576Z,100455.31
2024-02-02T21:05:15.566Z,100462.25
2024-02-02T21:07:42.323Z,100452.56
2024-02-02T21:10:10.956Z,100461.06
2024-02-02T21:12:38.344Z,100454.84
2024-02-02T21:15:05.377Z,100440.94
2024-02-02T21:17:33.401Z,100432.06
2024-02-02T21:20:00.903Z,100434.53
2024-02-02T21:22:28.840Z,100419.19
2024-02-02T21:24:55.694Z,100429.13
2024-02-02T21:27:22.478Z,100424.75
2024-02-02T21:29:49.162Z,100427.38
2024-02-02T21:32:15.686Z,100410.81
2024-02-02T21:34:42.393Z,100420.97
2024-02-02T21:37:08.966Z,100408.78
2024-02-02T21:39:39.086Z,100406.91
2024-02-02T21:42:06.206Z,100403.59
2024-02-02T21:44:36.710Z,100392.50
2024-02-02T21:47:04.382Z,100386.22
2024-02-02T21:49:31.065Z,100398.13
2024-02-02T21:51:57.673Z,100399.59
2024-02-02T21:54:24.318Z,100400.25
2024-02-02T21:56:50.996Z,100405.16
2024-02-02T21:59:17.757Z,100395.22
2024-02-02T22:01:44.388Z,100389.16
2024-02-02T22:04:13.385Z,100383.22
2024-02-02T22:06:40.247Z,100377.75
2024-02-02T22:09:07.466Z,100370.00
2024-02-02T22:11:34.168Z,100369.66
2024-02-02T22:14:00.778Z,100373.78
2024-02-02T22:16:27.278Z,100359.19
2024-02-02T22:18:53.922Z,100355.75
2024-02-02T22:21:24.895Z,100352.03
2024-02-02T22:23:51.597Z,100345.19
2024-02-02T22:26:19.952Z,100339.91
2024-02-02T22:28:47.158Z,100337.25
2024-02-02T22:31:23.416Z,100344.69
2024-02-02T22:33:51.211Z,100344.09
2024-02-02T22:36:19.693Z,100343.34
2024-02-02T22:38:46.439Z,100337.34
2024-02-02T22:41:32.391Z,100332.59
2024-02-02T22:44:00.988Z,100313.44
2024-02-02T22:46:30.665Z,100329.59
2024-02-02T22:48:57.368Z,100318.41
2024-02-02T22:51:24.118Z,100320.09
2024-02-02T22:53:50.776Z,100321.63
2024-02-02T22:56:17.324Z,100315.91
2024-02-02T22:58:43.959Z,100306.38
2024-02-02T23:01:10.662Z,100314.91
2024-02-02T23:03:37.443Z,100303.06
2024-02-02T23:06:04.338Z,100297.75
2024-02-02T23:08:30.981Z,100281.03
2024-02-02T23:10:58.527Z,100270.56
2024-02-02T23:13:25.483Z,100267.09
2024-02-02T23:15:54.343Z,100258.63
2024-02-02T23:18:22.317Z,100262.88
2024-02-02T23:20:49.271Z,100264.34
2024-02-02T23:23:17.416Z,100257.78
2024-02-02T23:25:44.620Z,100244.75
2024-02-02T23:28:11.306Z,100244.06
2024-02-02T23:30:38.457Z,100251.78
2024-02-02T23:33:05.452Z,100229.47
2024-02-02T23:35:32.126Z,100232.16
2024-02-02T23:37:58.700Z,100231.38
2024-02-02T23:40:25.242Z,100218.81
2024-02-02T23:42:52.429Z,100229.81
2024-02-02T23:45:19.352Z,100213.94
2024-02-02T23:47:45.937Z,100227.84
2024-02-02T23:50:13.645Z,100221.25
2024-02-02T23:52:40.332Z,100223.66
2024-02-02T23:55:10.293Z,100213.69
2024-02-02T23:57:37.878Z,100216.00
